Time,TemperatureF,DewpointF,PressureIn,WindDirection,WindDirectionDegrees,WindSpeedMPH,WindSpeedGustMPH,Humidity,HourlyPrecipIn,Conditions,Clouds,dailyrainin,SoftwareType,DateUTC
2013-01-06 00:00:00,32.3,29.4,30.28,SW,218,3.0,3.0,89,0.00,,,0.00,Wunderground v.1.15,2013-01-06 06:00:00,
2013-01-06 00:10:00,32.3,29.4,30.27,SW,228,3.0,4.0,89,0.00,,,0.00,Wunderground v.1.15,2013-01-06 06:10:00,
2013-01-06 00:15:00,32.4,29.8,30.27,SSW,211,4.0,4.0,90,0.00,,,0.00,Wunderground v.1.15,2013-01-06 06:15:00,
2013-01-06 00:20:00,32.5,29.9,30.27,SSW,209,4.0,4.0,90,0.00,,,0.00,Wunderground v.1.15,2013-01-06 06:20:00,
2013-01-06 00:25:00,32.7,30.1,30.27,SSW,205,4.0,5.0,90,0.00,,,0.00,Wunderground v.1.15,2013-01-06 06:25:00,
2013-01-06 00:35:00,33.1,30.2,30.27,SW,226,5.0,5.0,89,0.00,,,0.00,Wunderground v.1.15,2013-01-06 06:35:00,
2013-01-06 00:40:00,33.2,30.3,30.27,SW,225,4.0,4.0,89,0.00,,,0.00,Wunderground v.1.15,2013-01-06 06:40:00,
2013-01-06 00:45:00,33.5,30.6,30.27,SW,226,4.0,6.0,89,0.00,,,0.00,Wunderground v.1.15,2013-01-06 06:45:00,
2013-01-06 00:50:00,33.5,30.6,30.27,SW,229,4.0,4.0,89,0.00,,,0.00,Wunderground v.1.15,2013-01-06 06:50:00,
2013-01-06 00:55:00,33.4,30.5,30.27,SW,221,3.0,6.0,89,0.00,,,0.00,Wunderground v.1.15,2013-01-06 06:55:00,
2013-01-06 01:00:00,33.3,30.4,30.27,SW,219,3.0,3.0,89,0.00,,,0.00,Wunderground v.1.15,2013-01-06 07:00:00,
2013-01-06 01:10:00,33.0,30.1,30.28,WSW,243,2.0,2.0,89,0.00,,,0.00,Wunderground v.1.15,2013-01-06 07:10:00,
2013-01-06 01:15:00,33.2,30.6,30.28,WSW,242,2.0,2.0,90,0.00,,,0.00,Wunderground v.1.15,2013-01-06 07:15:00,
2013-01-06 01:20:00,33.2,30.3,30.28,SW,228,2.0,3.0,89,0.00,,,0.00,Wunderground v.1.15,2013-01-06 07:20:00,
2013-01-06 01:25:00,33.1,30.5,30.28,SSW,205,3.0,4.0,90,0.00,,,0.00,Wunderground v.1.15,2013-01-06 07:25:00,
2013-01-06 01:30:00,33.2,30.6,30.28,SSW,203,4.0,4.0,90,0.00,,,0.00,Wunderground v.1.15,2013-01-06 07:30:00,
2013-01-06 01:35:00,33.2,30.3,30.28,SW,232,4.0,4.0,89,0.00,,,0.00,Wunderground v.1.15,2013-01-06 07:35:00,
2013-01-06 01:40:00,33.1,30.5,30.28,SW,233,3.0,3.0,90,0.00,,,0.00,Wunderground v.1.15,2013-01-06 07:40:00,
2013-01-06 01:50:00,33.0,30.4,30.29,WSW,248,3.0,3.0,90,0.00,,,0.00,Wunderground v.1.15,2013-01-06 07:50:00,
2013-01-06 01:55:00,33.3,31.0,30.29,SW,224,3.0,8.0,91,0.00,,,0.00,Wunderground v.1.15,2013-01-06 07:55:00,
2013-01-06 02:00:00,33.5,30.9,30.29,WSW,252,2.0,2.0,90,0.00,,,0.00,Wunderground v.1.15,2013-01-06 08:00:00,
2013-01-06 02:10:00,33.4,30.8,30.29,SW,226,2.0,2.0,90,0.00,,,0.00,Wunderground v.1.15,2013-01-06 08:10:00,
2013-01-06 02:20:00,33.3,30.7,30.29,WSW,253,2.0,2.0,90,0.00,,,0.00,Wunderground v.1.15,2013-01-06 08:20:00,
2013-01-06 02:25:00,33.2,30.6,30.29,SSW,210,2.0,3.0,90,0.00,,,0.00,Wunderground v.1.15,2013-01-06 08:25:00,
2013-01-06 02:30:00,33.1,30.5,30.29,WSW,245,2.0,2.0,90,0.00,,,0.00,Wunderground v.1.15,2013-01-06 08:30:00,
2013-01-06 02:35:00,32.9,30.3,30.30,WSW,255,2.0,2.0,90,0.00,,,0.00,Wunderground v.1.15,2013-01-06 08:35:00,
2013-01-06 02:40:00,32.7,30.1,30.29,WSW,245,2.0,2.0,90,0.00,,,0.00,Wunderground v.1.15,2013-01-06 08:40:00,
2013-01-06 02:45:00,32.4,29.8,30.29,WSW,239,2.0,2.0,90,0.00,,,0.00,Wunderground v.1.15,2013-01-06 08:45:00,
2013-01-06 02:55:00,31.7,29.4,30.30,West,264,1.0,7.0,91,0.00,,,0.00,Wunderground v.1.15,2013-01-06 08:55:00,
2013-01-06 03:00:00,31.3,29.0,30.30,WSW,252,1.0,1.0,91,0.00,,,0.00,Wunderground v.1.15,2013-01-06 09:00:00,
2013-01-06 03:10:00,30.7,28.4,30.30,WNW,282,0.0,0.0,91,0.00,,,0.00,Wunderground v.1.15,2013-01-06 09:10:00,
2013-01-06 03:15:00,30.4,28.4,30.30,West,281,0.0,0.0,92,0.00,,,0.00,Wunderground v.1.15,2013-01-06 09:15:00,
2013-01-06 03:25:00,30.4,28.6,30.30,WSW,246,0.0,0.0,93,0.00,,,0.00,Wunderground v.1.15,2013-01-06 09:25:00,
2013-01-06 03:35:00,29.8,28.0,30.30,WSW,252,0.0,0.0,93,0.00,,,0.00,Wunderground v.1.15,2013-01-06 09:35:00,
2013-01-06 04:10:00,29.6,28.1,30.30,WSW,256,1.0,1.0,94,0.00,,,0.00,Wunderground v.1.15,2013-01-06 10:10:00,
2013-01-06 04:25:00,28.9,27.4,30.31,WSW,257,0.0,0.0,94,0.00,,,0.00,Wunderground v.1.15,2013-01-06 10:25:00,
2013-01-06 04:50:00,28.2,26.7,30.31,WSW,250,0.0,1.0,94,0.00,,,0.00,Wunderground v.1.15,2013-01-06 10:50:00,
2013-01-06 04:55:00,27.8,26.0,30.30,WSW,250,0.0,1.0,93,0.00,,,0.00,Wunderground v.1.15,2013-01-06 10:55:00,
2013-01-06 05:05:00,27.6,26.1,30.30,West,263,0.0,1.0,94,0.00,,,0.00,Wunderground v.1.15,2013-01-06 11:05:00,
2013-01-06 05:25:00,27.4,25.9,30.31,West,264,1.0,1.0,94,0.00,,,0.00,Wunderground v.1.15,2013-01-06 11:25:00,
2013-01-06 05:35:00,27.3,25.8,30.32,West,276,0.0,0.0,94,0.00,,,0.00,Wunderground v.1.15,2013-01-06 11:35:00,
2013-01-06 05:50:00,27.1,25.6,30.32,West,259,0.0,0.0,94,0.00,,,0.00,Wunderground v.1.15,2013-01-06 11:50:00,
2013-01-06 06:05:00,26.8,25.3,30.33,West,259,0.0,0.0,94,0.00,,,0.00,Wunderground v.1.15,2013-01-06 12:05:00,
2013-01-06 06:40:00,26.1,24.6,30.34,West,259,0.0,0.0,94,0.00,,,0.00,Wunderground v.1.15,2013-01-06 12:40:00,
2013-01-06 06:50:00,25.7,24.2,30.34,West,259,0.0,2.0,94,0.00,,,0.00,Wunderground v.1.15,2013-01-06 12:50:00,
2013-01-06 06:55:00,25.7,24.2,30.35,WSW,257,0.0,2.0,94,0.00,,,0.00,Wunderground v.1.15,2013-01-06 12:55:00,
2013-01-06 07:00:00,25.7,24.2,30.35,WSW,256,0.0,0.0,94,0.00,,,0.00,Wunderground v.1.15,2013-01-06 13:00:00,
2013-01-06 07:10:00,25.3,23.6,30.35,WSW,257,0.0,0.0,93,0.00,,,0.00,Wunderground v.1.15,2013-01-06 13:10:00,
2013-01-06 07:15:00,25.2,23.5,30.36,WSW,256,0.0,0.0,93,0.00,,,0.00,Wunderground v.1.15,2013-01-06 13:15:00,
2013-01-06 07:25:00,25.2,23.5,30.36,WSW,257,0.0,0.0,93,0.00,,,0.00,Wunderground v.1.15,2013-01-06 13:25:00,
2013-01-06 07:40:00,24.9,23.2,30.37,WSW,257,0.0,0.0,93,0.00,,,0.00,Wunderground v.1.15,2013-01-06 13:40:00,
2013-01-06 07:55:00,25.5,23.8,30.37,WSW,257,0.0,0.0,93,0.00,,,0.00,Wunderground v.1.15,2013-01-06 13:55:00,
2013-01-06 08:00:00,25.8,23.8,30.37,West,280,0.0,0.0,92,0.00,,,0.00,Wunderground v.1.15,2013-01-06 14:00:00,
2013-01-06 08:10:00,26.5,24.2,30.37,NW,316,0.0,0.0,91,0.00,,,0.00,Wunderground v.1.15,2013-01-06 14:10:00,
2013-01-06 08:15:00,26.8,24.3,30.37,North,9,0.0,0.0,90,0.00,,,0.00,Wunderground v.1.15,2013-01-06 14:15:00,
2013-01-06 08:25:00,27.5,24.7,30.38,North,11,0.0,2.0,89,0.00,,,0.00,Wunderground v.1.15,2013-01-06 14:25:00,
2013-01-06 08:35:00,28.3,24.9,30.38,North,354,2.0,2.0,87,0.00,,,0.00,Wunderground v.1.15,2013-01-06 14:35:00,
2013-01-06 08:45:00,29.1,25.2,30.38,North,9,2.0,2.0,85,0.00,,,0.00,Wunderground v.1.15,2013-01-06 14:45:00,
2013-01-06 08:55:00,29.9,25.7,30.38,NW,311,1.0,2.0,84,0.00,,,0.00,Wunderground v.1.15,2013-01-06 14:55:00,
2013-01-06 09:10:00,30.8,26.0,30.39,NNW,330,1.0,1.0,82,0.00,,,0.00,Wunderground v.1.15,2013-01-06 15:10:00,
2013-01-06 09:40:00,31.8,26.0,30.40,NNE,20,4.0,4.0,79,0.00,,,0.00,Wunderground v.1.15,2013-01-06 15:40:00,
2013-01-06 09:45:00,31.8,25.7,30.40,NNW,340,5.0,7.0,78,0.00,,,0.00,Wunderground v.1.15,2013-01-06 15:45:00,
2013-01-06 10:00:00,32.5,25.8,30.40,NNE,19,4.0,7.0,76,0.00,,,0.00,Wunderground v.1.15,2013-01-06 16:00:00,
2013-01-06 10:10:00,33.1,26.4,30.41,NW,316,3.0,3.0,76,0.00,,,0.00,Wunderground v.1.15,2013-01-06 16:10:00,
2013-01-06 10:30:00,34.3,26.5,30.41,NNW,335,3.0,4.0,73,0.00,,,0.00,Wunderground v.1.15,2013-01-06 16:30:00,
2013-01-06 10:35:00,34.5,26.1,30.41,NNW,335,3.0,4.0,71,0.00,,,0.00,Wunderground v.1.15,2013-01-06 16:35:00,
2013-01-06 11:10:00,36.4,27.2,30.41,NNW,340,3.0,3.0,69,0.00,,,0.00,Wunderground v.1.15,2013-01-06 17:10:00,
2013-01-06 11:50:00,38.8,28.0,30.39,NNW,338,3.0,3.0,65,0.00,,,0.00,Wunderground v.1.15,2013-01-06 17:50:00,
2013-01-06 11:55:00,39.5,28.3,30.39,NNW,342,3.0,8.0,64,0.00,,,0.00,Wunderground v.1.15,2013-01-06 17:55:00,
2013-01-06 12:05:00,39.7,27.3,30.39,North,11,3.0,5.0,61,0.00,,,0.00,Wunderground v.1.15,2013-01-06 18:05:00,
2013-01-06 12:25:00,40.6,26.5,30.38,North,352,3.0,4.0,57,0.00,,,0.00,Wunderground v.1.15,2013-01-06 18:25:00,
2013-01-06 12:40:00,41.3,25.9,30.37,NNW,333,4.0,4.0,54,0.00,,,0.00,Wunderground v.1.15,2013-01-06 18:40:00,
2013-01-06 12:45:00,41.3,26.3,30.37,NNE,15,4.0,4.0,55,0.00,,,0.00,Wunderground v.1.15,2013-01-06 18:45:00,
2013-01-06 12:55:00,42.2,26.7,30.36,NW,308,3.0,8.0,54,0.00,,,0.00,Wunderground v.1.15,2013-01-06 18:55:00,
2013-01-06 13:10:00,42.4,25.5,30.36,NNE,13,4.0,6.0,51,0.00,,,0.00,Wunderground v.1.15,2013-01-06 19:10:00,
2013-01-06 13:20:00,43.0,25.6,30.36,WNW,287,3.0,3.0,50,0.00,,,0.00,Wunderground v.1.15,2013-01-06 19:20:00,
2013-01-06 13:25:00,43.1,24.7,30.36,NNE,22,3.0,7.0,48,0.00,,,0.00,Wunderground v.1.15,2013-01-06 19:25:00,
2013-01-06 13:35:00,43.0,24.6,30.36,NW,305,4.0,4.0,48,0.00,,,0.00,Wunderground v.1.15,2013-01-06 19:35:00,
2013-01-06 13:40:00,43.1,24.7,30.36,NNW,340,4.0,4.0,48,0.00,,,0.00,Wunderground v.1.15,2013-01-06 19:40:00,
2013-01-06 13:45:00,43.3,24.4,30.36,WNW,283,4.0,4.0,47,0.00,,,0.00,Wunderground v.1.15,2013-01-06 19:45:00,
2013-01-06 13:50:00,43.2,23.8,30.36,NNE,18,4.0,10.0,46,0.00,,,0.00,Wunderground v.1.15,2013-01-06 19:50:00,
2013-01-06 14:00:00,43.5,24.1,30.36,NW,316,4.0,5.0,46,0.00,,,0.00,Wunderground v.1.15,2013-01-06 20:00:00,
2013-01-06 14:10:00,43.7,23.7,30.36,NNE,23,3.0,3.0,45,0.00,,,0.00,Wunderground v.1.15,2013-01-06 20:10:00,
2013-01-06 14:15:00,43.8,24.3,30.36,NW,319,3.0,3.0,46,0.00,,,0.00,Wunderground v.1.15,2013-01-06 20:15:00,
2013-01-06 14:20:00,43.9,23.9,30.36,NNE,32,4.0,5.0,45,0.00,,,0.00,Wunderground v.1.15,2013-01-06 20:20:00,
2013-01-06 14:30:00,44.0,24.0,30.36,NW,305,3.0,3.0,45,0.00,,,0.00,Wunderground v.1.15,2013-01-06 20:30:00,
2013-01-06 14:35:00,44.0,23.5,30.36,NNE,23,3.0,3.0,44,0.00,,,0.00,Wunderground v.1.15,2013-01-06 20:35:00,
2013-01-06 14:40:00,43.9,23.4,30.36,NNE,30,4.0,5.0,44,0.00,,,0.00,Wunderground v.1.15,2013-01-06 20:40:00,
2013-01-06 14:45:00,43.9,23.4,30.36,NNE,24,4.0,5.0,44,0.00,,,0.00,Wunderground v.1.15,2013-01-06 20:45:00,
2013-01-06 14:50:00,44.0,23.5,30.36,NW,319,3.0,3.0,44,0.00,,,0.00,Wunderground v.1.15,2013-01-06 20:50:00,
2013-01-06 14:55:00,44.3,23.7,30.36,NW,308,3.0,8.0,44,0.00,,,0.00,Wunderground v.1.15,2013-01-06 20:55:00,
2013-01-06 15:00:00,44.3,23.7,30.36,NNE,30,3.0,3.0,44,0.00,,,0.00,Wunderground v.1.15,2013-01-06 21:00:00,
2013-01-06 15:05:00,44.5,24.5,30.36,WNW,302,3.0,3.0,45,0.00,,,0.00,Wunderground v.1.15,2013-01-06 21:05:00,
2013-01-06 15:10:00,44.4,23.3,30.36,NNW,348,3.0,3.0,43,0.00,,,0.00,Wunderground v.1.15,2013-01-06 21:10:00,
2013-01-06 15:15:00,44.5,23.9,30.37,North,358,3.0,3.0,44,0.00,,,0.00,Wunderground v.1.15,2013-01-06 21:15:00,
2013-01-06 15:20:00,44.6,24.0,30.36,NNW,338,2.0,2.0,44,0.00,,,0.00,Wunderground v.1.15,2013-01-06 21:20:00,
2013-01-06 15:25:00,44.6,23.5,30.36,NW,316,2.0,2.0,43,0.00,,,0.00,Wunderground v.1.15,2013-01-06 21:25:00,
2013-01-06 15:35:00,44.5,23.4,30.36,NW,310,3.0,3.0,43,0.00,,,0.00,Wunderground v.1.15,2013-01-06 21:35:00,
2013-01-06 15:40:00,44.6,23.5,30.36,North,10,2.0,3.0,43,0.00,,,0.00,Wunderground v.1.15,2013-01-06 21:40:00,
2013-01-06 15:45:00,44.4,24.4,30.37,West,280,2.0,3.0,45,0.00,,,0.00,Wunderground v.1.15,2013-01-06 21:45:00,
2013-01-06 15:50:00,44.6,24.0,30.37,NNW,338,2.0,9.0,44,0.00,,,0.00,Wunderground v.1.15,2013-01-06 21:50:00,
2013-01-06 15:55:00,44.6,24.0,30.37,NW,326,2.0,9.0,44,0.00,,,0.00,Wunderground v.1.15,2013-01-06 21:55:00,
2013-01-06 16:00:00,44.4,23.8,30.37,NW,322,2.0,2.0,44,0.00,,,0.00,Wunderground v.1.15,2013-01-06 22:00:00,
2013-01-06 16:10:00,44.2,24.2,30.37,NW,305,2.0,2.0,45,0.00,,,0.00,Wunderground v.1.15,2013-01-06 22:10:00,
2013-01-06 16:15:00,44.2,24.2,30.37,North,360,2.0,2.0,45,0.00,,,0.00,Wunderground v.1.15,2013-01-06 22:15:00,
2013-01-06 16:20:00,44.2,24.2,30.37,North,356,1.0,1.0,45,0.00,,,0.00,Wunderground v.1.15,2013-01-06 22:20:00,
2013-01-06 16:25:00,43.9,23.9,30.37,WNW,302,1.0,1.0,45,0.00,,,0.00,Wunderground v.1.15,2013-01-06 22:25:00,
2013-01-06 16:30:00,43.9,24.4,30.37,North,354,1.0,1.0,46,0.00,,,0.00,Wunderground v.1.15,2013-01-06 22:30:00,
2013-01-06 16:40:00,43.3,23.9,30.37,NNW,342,1.0,1.0,46,0.00,,,0.00,Wunderground v.1.15,2013-01-06 22:40:00,
2013-01-06 16:50:00,43.1,23.7,30.36,North,6,1.0,5.0,46,0.00,,,0.00,Wunderground v.1.15,2013-01-06 22:50:00,
2013-01-06 16:55:00,42.9,24.0,30.36,NW,318,1.0,5.0,47,0.00,,,0.00,Wunderground v.1.15,2013-01-06 22:55:00,
2013-01-06 17:00:00,42.7,23.3,30.36,NW,319,1.0,1.0,46,0.00,,,0.00,Wunderground v.1.15,2013-01-06 23:00:00,
2013-01-06 17:10:00,41.6,23.3,30.37,NW,319,0.0,1.0,48,0.00,,,0.00,Wunderground v.1.15,2013-01-06 23:10:00,
2013-01-06 17:15:00,41.0,23.3,30.37,NW,319,0.0,1.0,49,0.00,,,0.00,Wunderground v.1.15,2013-01-06 23:15:00,
2013-01-06 17:20:00,40.4,23.2,30.37,NW,318,1.0,1.0,50,0.00,,,0.00,Wunderground v.1.15,2013-01-06 23:20:00,
2013-01-06 17:25:00,39.7,23.0,30.36,NW,318,1.0,1.0,51,0.00,,,0.00,Wunderground v.1.15,2013-01-06 23:25:00,
2013-01-06 17:30:00,39.4,23.2,30.36,NW,318,0.0,0.0,52,0.00,,,0.00,Wunderground v.1.15,2013-01-06 23:30:00,
2013-01-06 17:35:00,39.1,23.4,30.36,NW,317,0.0,1.0,53,0.00,,,0.00,Wunderground v.1.15,2013-01-06 23:35:00,
2013-01-06 17:40:00,38.9,23.2,30.36,NW,318,0.0,0.0,53,0.00,,,0.00,Wunderground v.1.15,2013-01-06 23:40:00,
2013-01-06 17:50:00,38.0,22.8,30.36,NW,318,0.0,4.0,54,0.00,,,0.00,Wunderground v.1.15,2013-01-06 23:50:00,
2013-01-06 17:55:00,37.7,23.0,30.36,NW,318,0.0,4.0,55,0.00,,,0.00,Wunderground v.1.15,2013-01-06 23:55:00,
2013-01-06 18:00:00,37.3,23.0,30.36,NW,318,0.0,0.0,56,0.00,,,0.00,Wunderground v.1.15,2013-01-07 00:00:00,
2013-01-06 18:10:00,36.8,23.0,30.37,NW,318,0.0,0.0,57,0.00,,,0.00,Wunderground v.1.15,2013-01-07 00:10:00,
2013-01-06 18:20:00,36.4,22.6,30.37,NW,318,0.0,0.0,57,0.00,,,0.00,Wunderground v.1.15,2013-01-07 00:20:00,
2013-01-06 18:25:00,35.8,22.5,30.37,NW,318,0.0,0.0,58,0.00,,,0.00,Wunderground v.1.15,2013-01-07 00:25:00,
2013-01-06 18:40:00,33.9,21.9,30.37,NW,318,0.0,0.0,61,0.00,,,0.00,Wunderground v.1.15,2013-01-07 00:40:00,
2013-01-06 18:45:00,33.6,22.0,30.37,NW,318,0.0,0.0,62,0.00,,,0.00,Wunderground v.1.15,2013-01-07 00:45:00,
2013-01-06 18:50:00,33.4,22.1,30.37,NW,318,0.0,1.0,63,0.00,,,0.00,Wunderground v.1.15,2013-01-07 00:50:00,
2013-01-06 19:00:00,32.8,22.0,30.38,NW,318,0.0,0.0,64,0.00,,,0.00,Wunderground v.1.15,2013-01-07 01:00:00,
2013-01-06 19:10:00,33.8,22.5,30.38,NW,318,0.0,0.0,63,0.00,,,0.00,Wunderground v.1.15,2013-01-07 01:10:00,
2013-01-06 19:50:00,31.1,22.1,30.38,NE,39,0.0,0.0,69,0.00,,,0.00,Wunderground v.1.15,2013-01-07 01:50:00,
2013-01-06 19:55:00,30.4,21.8,30.38,NE,39,0.0,0.0,70,0.00,,,0.00,Wunderground v.1.15,2013-01-07 01:55:00,
2013-01-06 20:50:00,30.6,22.0,30.39,NE,40,0.0,0.0,70,0.00,,,0.00,Wunderground v.1.15,2013-01-07 02:50:00,
2013-01-06 20:55:00,30.4,21.8,30.38,NE,39,0.0,0.0,70,0.00,,,0.00,Wunderground v.1.15,2013-01-07 02:55:00,
2013-01-06 21:00:00,30.1,21.8,30.39,NE,40,0.0,0.0,71,0.00,,,0.00,Wunderground v.1.15,2013-01-07 03:00:00,
2013-01-06 21:10:00,30.0,21.7,30.38,NE,39,0.0,0.0,71,0.00,,,0.00,Wunderground v.1.15,2013-01-07 03:10:00,
2013-01-06 21:20:00,30.4,22.1,30.39,NE,39,0.0,0.0,71,0.00,,,0.00,Wunderground v.1.15,2013-01-07 03:20:00,
2013-01-06 21:35:00,30.7,22.1,30.39,NE,39,0.0,0.0,70,0.00,,,0.00,Wunderground v.1.15,2013-01-07 03:35:00,
2013-01-06 22:10:00,31.0,22.0,30.39,NE,39,0.0,0.0,69,0.00,,,0.00,Wunderground v.1.15,2013-01-07 04:10:00,
2013-01-06 22:15:00,30.7,21.7,30.39,NE,40,0.0,0.0,69,0.00,,,0.00,Wunderground v.1.15,2013-01-07 04:15:00,
2013-01-06 22:25:00,29.6,21.0,30.39,SW,221,0.0,1.0,70,0.00,,,0.00,Wunderground v.1.15,2013-01-07 04:25:00,
2013-01-06 22:30:00,28.3,20.7,30.39,SW,219,1.0,1.0,73,0.00,,,0.00,Wunderground v.1.15,2013-01-07 04:30:00,
2013-01-06 22:40:00,27.4,20.5,30.39,SW,215,1.0,1.0,75,0.00,,,0.00,Wunderground v.1.15,2013-01-07 04:40:00,
2013-01-06 22:45:00,26.9,20.0,30.39,SW,215,1.0,1.0,75,0.00,,,0.00,Wunderground v.1.15,2013-01-07 04:45:00,
2013-01-06 22:50:00,26.5,20.0,30.39,SW,215,0.0,0.0,76,0.00,,,0.00,Wunderground v.1.15,2013-01-07 04:50:00,
2013-01-06 22:55:00,26.1,19.9,30.39,SW,215,0.0,0.0,77,0.00,,,0.00,Wunderground v.1.15,2013-01-07 04:55:00,
2013-01-06 23:00:00,25.9,20.0,30.39,SW,215,0.0,0.0,78,0.00,,,0.00,Wunderground v.1.15,2013-01-07 05:00:00,
2013-01-06 23:05:00,25.7,20.1,30.39,SW,215,0.0,1.0,79,0.00,,,0.00,Wunderground v.1.15,2013-01-07 05:05:00,
2013-01-06 23:15:00,26.5,21.2,30.39,SW,215,0.0,0.0,80,0.00,,,0.00,Wunderground v.1.15,2013-01-07 05:15:00,
2013-01-06 23:20:00,26.7,21.1,30.38,SW,215,0.0,0.0,79,0.00,,,0.00,Wunderground v.1.15,2013-01-07 05:20:00,
2013-01-06 23:25:00,26.5,20.9,30.39,SW,215,0.0,0.0,79,0.00,,,0.00,Wunderground v.1.15,2013-01-07 05:25:00,
2013-01-06 23:30:00,26.3,20.7,30.38,SW,215,0.0,0.0,79,0.00,,,0.00,Wunderground v.1.15,2013-01-07 05:30:00,
2013-01-06 23:40:00,26.3,21.0,30.39,SW,215,0.0,0.0,80,0.00,,,0.00,Wunderground v.1.15,2013-01-07 05:40:00,
2013-01-06 23:50:00,26.6,21.0,30.39,SW,217,0.0,2.0,79,0.00,,,0.00,Wunderground v.1.15,2013-01-07 05:50:00,
2013-01-06 23:55:00,27.0,21.4,30.38,SW,215,0.0,2.0,79,0.00,,,0.00,Wunderground v.1.15,2013-01-07 05:55:00,